Flight Track Log - Related Links

Times and Time Zones

All times are in EDT time to prevent confusion due to time zone crossing. See the N70AG flight status page for this flight to view local times or setup timezone preferences in your user account.

Time Position Orientation Groundspeed Altitude Reporting Facility
EDT Latitude Longitude Course Direction KTS MPH feet Rate Location/Type
Mon 10:11:17 AM 32.7428 -117.2197 302° West 228 262 1,100  Level Los Angeles Center
Mon 10:12:19 AM 32.7736 -117.2781 302° West 208 239 3,900 3,145 Climbing Los Angeles Center
Mon 10:13:21 AM 32.8258 -117.3531 310° West 262 302 7,600 3,317 Climbing Los Angeles Center
Mon 10:14:22 AM 32.8806 -117.4267 312° West 289 333 10,700 2,634 Climbing Los Angeles Center
Mon 10:15:24 AM 32.9467 -117.5192 310° West 360 414 13,000 2,710 Climbing Los Angeles Center
Mon 10:16:26 AM 33.0200 -117.6153 312° West 385 443 16,300 2,927 Climbing Los Angeles Center
Mon 10:17:27 AM 33.0936 -117.7167 311° West 400 460 19,000 2,829 Climbing Los Angeles Center
Mon 10:18:29 AM 33.1836 -117.8458 310° West 422 486 22,100 2,382 Climbing Los Angeles Center
Mon 10:19:43 AM 33.2303 -117.9831 292° West 443 510 24,400 2,250 Climbing Los Angeles Center
Mon 10:20:45 AM 33.2869 -118.1539 292° West 457 526 27,200 2,780 Climbing Los Angeles Center
Mon 10:21:46 AM 33.3639 -118.2717 308° West 449 517 30,100 2,829 Climbing Los Angeles Center
Mon 10:22:48 AM 33.4792 -118.3189 341° North 436 502 33,000 1,887 Climbing Los Angeles Center
Mon 10:23:50 AM 33.5969 -118.3475 349° North 431 496 34,000 488 Climbing Los Angeles Center
Mon 10:24:51 AM 33.7283 -118.3811 348° North 431 496 34,000  Level Los Angeles Center
Mon 10:26:05 AM 33.8525 -118.4131 348° North 448 516 34,000  Level Los Angeles Center
Mon 10:27:07 AM 33.9981 -118.4550 347° North 460 529 34,000  Level Los Angeles Center
Mon 10:28:09 AM 34.1194 -118.5011 343° North 457 526 34,000 387 Level Los Angeles Center
Mon 10:29:11 AM 34.2697 -118.5561 343° North 466 536 34,800 1,244 Climbing Los Angeles Center
Mon 10:30:24 AM 34.3928 -118.6006 343° North 466 536 36,800 1,422 Climbing Los Angeles Center
Mon 10:31:26 AM 34.5411 -118.6547 343° North 463 533 38,000 581 Climbing Los Angeles Center
Mon 10:32:28 AM 34.6686 -118.7028 343° North 474 545 38,000  Level Los Angeles Center
Mon 10:33:30 AM 34.7983 -118.7533 342° North 488 562 38,000  Level Los Angeles Center
Mon 10:34:32 AM 34.9275 -118.8003 343° North 484 557 38,000  Level Los Angeles Center
Mon 10:35:45 AM 35.0572 -118.8492 343° North 486 559 38,000  Level Los Angeles Center
Mon 10:36:47 AM 35.2408 -118.9172 343° North 494 568 38,000  Level Los Angeles Center
Mon 10:37:49 AM 35.3706 -118.9661 343° North 491 565 38,000  Level Los Angeles Center
Mon 10:38:51 AM 35.4992 -119.0144 343° North 486 559 38,000  Level Los Angeles Center
Mon 10:39:52 AM 35.6289 -119.0644 343° North 489 563 38,000  Level Los Angeles Center
Mon 10:40:54 AM 35.7589 -119.1144 343° North 491 565 38,000  Level Los Angeles Center
Mon 10:41:56 AM 35.8881 -119.1644 343° North 490 564 38,000  Level Los Angeles Center
Mon 10:42:57 AM 36.0189 -119.2147 343° North 493 567 38,000  Level Los Angeles Center
Mon 10:43:59 AM 36.1744 -119.2750 343° North 492 566 38,000  Level Los Angeles Center
Mon 10:45:01 AM 36.3053 -119.3258 343° North 494 568 38,000  Level Los Angeles Center
Mon 10:46:03 AM 36.4361 -119.3781 342° North 496 571 38,000  Level Los Angeles Center
Mon 10:47:05 AM 36.5675 -119.4292 343° North 497 572 38,000  Level Los Angeles Center
Mon 10:48:15 AM 36.7261 -119.4878 344° North 501 577 38,000  Level Oakland Center
Mon 10:49:16 AM 36.8594 -119.5411 342° North 509 586 38,000  Level Oakland Center
Mon 10:50:17 AM 36.9906 -119.5953 342° North 498 573 38,000  Level Oakland Center
Mon 10:51:18 AM 37.1219 -119.6478 342° North 494 568 38,000  Level Oakland Center
Mon 10:52:19 AM 37.2828 -119.7131 342° North 505 581 38,000  Level Oakland Center
Mon 10:53:21 AM 37.4033 -119.7592 343° North 509 586 38,000  Level Oakland Center
Mon 10:54:22 AM 37.5364 -119.8136 342° North 503 579 38,000  Level Oakland Center
Mon 10:55:23 AM 37.6689 -119.8642 343° North 493 567 38,000  Level Oakland Center
Mon 10:56:24 AM 37.8014 -119.9189 342° North 499 574 38,000  Level Oakland Center
Mon 10:57:25 AM 37.9633 -119.9819 343° North 507 583 38,000  Level Oakland Center
Mon 10:58:26 AM 38.0964 -120.0364 342° North 505 581 38,000  Level Oakland Center
Mon 10:59:27 AM 38.2294 -120.0922 342° North 504 580 38,000  Level Oakland Center
Mon 11:00:28 AM 38.3642 -120.1478 342° North 509 586 38,000  Level Oakland Center
Mon 11:01:30 AM 38.4978 -120.2028 342° North 508 585 38,000  Level Oakland Center
Mon 11:02:31 AM 38.6328 -120.2586 342° North 511 588 38,000  Level Oakland Center
Mon 11:03:32 AM 38.7675 -120.3139 342° North 512 589 38,000  Level Oakland Center
Mon 11:04:33 AM 38.9019 -120.3692 342° North 509 586 38,000  Level Oakland Center
Mon 11:05:35 AM 39.0364 -120.4253 342° North 509 586 38,000  Level Oakland Center
Mon 11:06:36 AM 39.1989 -120.4936 342° North 512 589 38,000  Level Oakland Center
Mon 11:07:37 AM 39.3336 -120.5511 342° North 510 587 38,000  Level Oakland Center
Mon 11:08:38 AM 39.4692 -120.6081 342° North 512 589 38,000  Level Oakland Center
Mon 11:09:39 AM 39.6064 -120.6664 342° North 517 595 38,000  Level Oakland Center
Mon 11:10:40 AM 39.7425 -120.7250 342° North 518 596 38,000  Level Oakland Center
Mon 11:11:42 AM 39.8811 -120.7847 342° North 523 602 38,000  Level Oakland Center
Mon 11:12:43 AM 40.0356 -120.8508 342° North 519 597 38,000  Level Oakland Center
Mon 11:13:44 AM 40.1736 -120.9103 342° North 523 602 38,000  Level Oakland Center
Mon 11:14:45 AM 40.3122 -120.9706 342° North 531 611 38,000  Level Oakland Center
Mon 11:15:47 AM 40.4522 -121.0314 342° North 534 615 38,000  Level Oakland Center
Mon 11:16:48 AM 40.5833 -121.0903 341° North 526 605 38,000 -209 Level Oakland Center
Mon 11:17:13 AM 40.6392 -121.1133 343° North 524 603 37,700 -907 Descending Seattle Center
Mon 11:18:14 AM 40.7767 -121.1750 341° North 521 600 36,700 -836 Descending Seattle Center
Mon 11:19:15 AM 40.9217 -121.2406 341° North 533 613 36,000 -347 Descending Seattle Center
Mon 11:20:15 AM 41.0583 -121.3019 341° North 533 613 36,000  Level Seattle Center
Mon 11:21:16 AM 41.1992 -121.3656 341° North 535 616 36,000  Level Seattle Center
Mon 11:21:54 AM 41.3078 -121.4186 340° North 532 612 36,000  Level Oakland Center
Mon 11:22:55 AM 41.4492 -121.4756 343° North 530 610 36,000  Level Oakland Center
Mon 11:23:18 AM 41.5033 -121.5019 340° North 524 603 36,000  Level Seattle Center
Mon 11:24:19 AM 41.6428 -121.5658 341° North 527 606 36,000  Level Seattle Center
Mon 11:25:20 AM 41.7828 -121.6289 341° North 532 612 36,000  Level Seattle Center
Mon 11:26:21 AM 41.9206 -121.6919 341° North 528 608 36,000  Level Seattle Center
Mon 11:27:21 AM 42.0564 -121.7528 342° North 526 605 36,000  Level Seattle Center
Mon 11:28:22 AM 42.1911 -121.8158 341° North 525 604 36,000  Level Seattle Center
Mon 11:29:23 AM 42.3278 -121.8781 341° North 527 606 36,000  Level Seattle Center
Mon 11:30:24 AM 42.4653 -121.9419 341° North 528 608 36,000  Level Seattle Center
Mon 11:31:25 AM 42.6042 -122.0067 341° North 529 609 36,000  Level Seattle Center
Mon 11:32:26 AM 42.7717 -122.0867 341° North 533 613 36,000  Level Seattle Center
Mon 11:33:26 AM 42.9119 -122.1508 341° North 531 611 36,000  Level Seattle Center
Mon 11:34:27 AM 43.0408 -122.2133 340° North 528 608 36,000  Level Seattle Center
Mon 11:35:28 AM 43.2006 -122.2875 341° North 536 617 36,000  Level Seattle Center
Mon 11:36:29 AM 43.3394 -122.3547 341° North 528 608 36,000  Level Seattle Center
Mon 11:37:30 AM 43.4789 -122.4219 341° North 533 613 36,000  Level Seattle Center
Mon 11:38:30 AM 43.6178 -122.4892 341° North 530 610 36,000 -397 Level Seattle Center
Mon 11:39:31 AM 43.7569 -122.5558 341° North 531 611 35,200 -1,475 Descending Seattle Center
Mon 11:40:32 AM 43.8886 -122.6236 340° North 513 590 33,000 -2,410 Descending Seattle Center
Mon 11:41:33 AM 44.0214 -122.6894 340° North 511 588 30,300 -2,705 Descending Seattle Center
Mon 11:42:34 AM 44.1606 -122.7394 346° North 518 596 27,500 -2,754 Descending Seattle Center
Mon 11:43:35 AM 44.3033 -122.7381 360° North 517 595 24,700 -2,852 Descending Seattle Center
Mon 11:44:36 AM 44.4519 -122.7222 North 501 577 21,700 -2,727 Descending Seattle Center
Mon 11:45:36 AM 44.5814 -122.7097 North 478 550 19,200 -2,518 Descending Seattle Center
Mon 11:46:28 AM 44.6978 -122.6972 North 457 526 17,000 -2,361 Descending Seattle Center
Mon 11:47:38 AM 44.8258 -122.6858 North 436 502 14,400 -2,198 Descending Seattle Center
Mon 11:48:39 AM 44.9367 -122.6750 North 412 474 12,200 -2,016 Descending Seattle Center
Mon 11:49:40 AM 45.0267 -122.6647 North 337 388 10,300 -1,472 Descending Seattle Center
Mon 11:50:25 AM 45.0950 -122.6594 North 279 321 9,600 -984 Descending Seattle Center
Mon 11:50:41 AM 45.1058 -122.6578 North 297 342 9,300 -2,400 Descending Seattle Center
Mon 11:51:25 AM 45.1739 -122.6519 North 270 311 7,200 -2,262 Descending Seattle Center
Mon 11:51:42 AM 45.1803 -122.6497 14° North 275 316 7,000 -1,180 Descending Seattle Center
Mon 11:52:26 AM 45.2414 -122.6431 North 221 254 6,000 -1,082 Descending Seattle Center
Mon 11:52:43 AM 45.2578 -122.6431 360° North 240 276 5,900 -556 Descending Seattle Center
Mon 11:53:20 AM 45.2864 -122.6403 North 180 207 5,500 -885 Descending Seattle Center
Mon 11:53:44 AM 45.3072 -122.6375 North 191 220 5,000 -1,200 Descending Seattle Center
Mon 11:54:15 AM 45.3336 -122.6392 357° North 189 217 4,400 -1,100 Descending Seattle Center
Mon 11:54:44 AM 45.3447 -122.6656 301° West 182 209 3,900 -329 Descending Seattle Center
Mon 11:55:28 AM 45.3567 -122.7100 291° West 155 178 4,000  Climbing Seattle Center
Mon 11:55:45 AM 45.3603 -122.7239 290° West 161 185 3,900 98 Descending Seattle Center
Mon 11:56:29 AM 45.3733 -122.7708 292° West 167 192 4,100  Climbing Seattle Center
Mon 11:56:46 AM 45.3794 -122.7836 304° West 165 190 3,900 -700 Descending Seattle Center
Mon 11:57:29 AM 45.4100 -122.8142 325° Northwest 181 208 3,400 -885 Descending Seattle Center
Mon 11:57:47 AM 45.4200 -122.8236 326° Northwest 177 204 3,000 -977 Descending Seattle Center
Mon 11:58:12 AM 45.4369 -122.8403 325° Northwest 178 205 2,700 -968 Descending Seattle Center
Mon 11:58:49 AM 45.4581 -122.8644 321° Northwest 176 203 2,000 -917 Descending Seattle Center
Mon 11:59:24 AM 45.4808 -122.8872 325° Northwest 201 231 1,600 -787 Descending Seattle Center
Mon 11:59:50 AM 45.4961 -122.9028 324° Northwest 172 198 1,200 -873 Descending Seattle Center
Mon 12:00:19 PM 45.5136 -122.9203 325° Northwest 165 190 800 -787 Descending Seattle Center
Mon 12:00:51 PM 45.5256 -122.9361 317° Northwest 157 181 400 -295 Descending Seattle Center
Mon 12:01:20 PM 45.5306 -122.9411 325° Northwest 151 174 500 -295 Climbing Seattle Center
Mon 12:01:52 PM 45.5581 -122.9706 323° Northwest 149 171 100 -750 Descending Seattle Center

Login

Don't have an account? Register now (free) for customized features, flight alerts, and more!